sensor_id;sensor_type;location;lat;lon;timestamp;pressure;altitude;pressure_sealevel;temperature;humidity
13594;BME280;6449;47.666;9.160;2023-04-06T00:22:33;97255.78;;;3.15;100.00
13594;BME280;6449;47.666;9.160;2023-04-06T00:34:07;97250.88;;;3.09;100.00
13594;BME280;6449;47.666;9.160;2023-04-06T00:39:04;97245.72;;;3.08;100.00
13594;BME280;6449;47.666;9.160;2023-04-06T00:44:05;97244.13;;;3.05;100.00
13594;BME280;6449;47.666;9.160;2023-04-06T00:55:29;97237.88;;;2.89;100.00
13594;BME280;6449;47.666;9.160;2023-04-06T01:00:26;97238.78;;;2.88;100.00
13594;BME280;6449;47.666;9.160;2023-04-06T01:16:00;97229.72;;;2.98;100.00
13594;BME280;6449;47.666;9.160;2023-04-06T01:20:54;97208.16;;;2.98;100.00
13594;BME280;6449;47.666;9.160;2023-04-06T01:25:49;97223.88;;;2.04;100.00
13594;BME280;6449;47.666;9.160;2023-04-06T01:30:42;97225.84;;;2.21;100.00
13594;BME280;6449;47.666;9.160;2023-04-06T01:35:36;97223.22;;;2.44;100.00
13594;BME280;6449;47.666;9.160;2023-04-06T01:40:39;97211.69;;;2.53;100.00
13594;BME280;6449;47.666;9.160;2023-04-06T01:45:34;97210.66;;;2.57;100.00
13594;BME280;6449;47.666;9.160;2023-04-06T01:50:27;97211.53;;;3.00;100.00
13594;BME280;6449;47.666;9.160;2023-04-06T01:55:21;97205.28;;;2.40;100.00
13594;BME280;6449;47.666;9.160;2023-04-06T02:00:16;97210.81;;;2.30;100.00
13594;BME280;6449;47.666;9.160;2023-04-06T02:05:11;97206.56;;;2.51;100.00
13594;BME280;6449;47.666;9.160;2023-04-06T02:10:12;97209.94;;;2.53;100.00
13594;BME280;6449;47.666;9.160;2023-04-06T02:15:07;97214.66;;;2.20;100.00
13594;BME280;6449;47.666;9.160;2023-04-06T02:20:01;97215.50;;;2.21;100.00
13594;BME280;6449;47.666;9.160;2023-04-06T02:24:59;97213.44;;;2.29;100.00
13594;BME280;6449;47.666;9.160;2023-04-06T02:29:52;97208.19;;;2.08;100.00
13594;BME280;6449;47.666;9.160;2023-04-06T02:34:46;97215.50;;;2.21;100.00
13594;BME280;6449;47.666;9.160;2023-04-06T02:39:39;97218.16;;;2.19;100.00
13594;BME280;6449;47.666;9.160;2023-04-06T02:44:37;97212.44;;;2.33;100.00
13594;BME280;6449;47.666;9.160;2023-04-06T02:49:30;97213.13;;;2.15;100.00
13594;BME280;6449;47.666;9.160;2023-04-06T02:54:24;97208.59;;;1.98;100.00
13594;BME280;6449;47.666;9.160;2023-04-06T02:59:17;97206.78;;;2.00;100.00
13594;BME280;6449;47.666;9.160;2023-04-06T03:04:12;97201.00;;;1.93;100.00
13594;BME280;6449;47.666;9.160;2023-04-06T03:09:06;97208.69;;;1.95;100.00
13594;BME280;6449;47.666;9.160;2023-04-06T03:14:00;97212.13;;;1.95;100.00
13594;BME280;6449;47.666;9.160;2023-04-06T03:18:54;97206.28;;;1.90;100.00
13594;BME280;6449;47.666;9.160;2023-04-06T03:23:49;97206.59;;;1.81;100.00
13594;BME280;6449;47.666;9.160;2023-04-06T03:28:43;97203.19;;;1.80;100.00
13594;BME280;6449;47.666;9.160;2023-04-06T03:33:36;97213.78;;;1.73;100.00
13594;BME280;6449;47.666;9.160;2023-04-06T03:43:39;97209.69;;;1.67;100.00
13594;BME280;6449;47.666;9.160;2023-04-06T03:48:32;97222.84;;;1.61;100.00
13594;BME280;6449;47.666;9.160;2023-04-06T03:53:26;97216.00;;;1.60;100.00
13594;BME280;6449;47.666;9.160;2023-04-06T03:58:20;97218.56;;;1.60;100.00
13594;BME280;6449;47.666;9.160;2023-04-06T04:03:15;97219.44;;;1.59;100.00
13594;BME280;6449;47.666;9.160;2023-04-06T04:08:09;97227.34;;;1.54;100.00
13594;BME280;6449;47.666;9.160;2023-04-06T04:23:18;97226.91;;;1.17;100.00
13594;BME280;6449;47.666;9.160;2023-04-06T04:38:34;97236.53;;;1.38;100.00
13594;BME280;6449;47.666;9.160;2023-04-06T05:24:28;97274.06;;;1.23;100.00
13594;BME280;6449;47.666;9.160;2023-04-06T05:29:21;97264.66;;;1.21;100.00
13594;BME280;6449;47.666;9.160;2023-04-06T05:39:24;97270.69;;;1.46;100.00
13594;BME280;6449;47.666;9.160;2023-04-06T05:49:25;97283.47;;;1.51;100.00
13594;BME280;6449;47.666;9.160;2023-04-06T06:30:15;97292.59;;;2.80;100.00
13594;BME280;6449;47.666;9.160;2023-04-06T06:40:22;97296.50;;;2.90;100.00
13594;BME280;6449;47.666;9.160;2023-04-06T06:45:29;97302.66;;;3.09;100.00
13594;BME280;6449;47.666;9.160;2023-04-06T06:50:28;97293.09;;;3.11;100.00
13594;BME280;6449;47.666;9.160;2023-04-06T06:55:24;97300.25;;;3.27;100.00
13594;BME280;6449;47.666;9.160;2023-04-06T07:00:26;97305.72;;;3.41;100.00
13594;BME280;6449;47.666;9.160;2023-04-06T07:05:23;97309.75;;;3.48;100.00
13594;BME280;6449;47.666;9.160;2023-04-06T07:10:23;97307.00;;;3.51;100.00
13594;BME280;6449;47.666;9.160;2023-04-06T07:15:18;97310.91;;;3.61;100.00
13594;BME280;6449;47.666;9.160;2023-04-06T07:20:14;97311.38;;;3.71;100.00
13594;BME280;6449;47.666;9.160;2023-04-06T07:25:09;97311.38;;;4.12;100.00
13594;BME280;6449;47.666;9.160;2023-04-06T07:30:03;97311.84;;;4.20;100.00
13594;BME280;6449;47.666;9.160;2023-04-06T07:34:58;97307.94;;;4.30;100.00
13594;BME280;6449;47.666;9.160;2023-04-06T07:45:00;97297.53;;;4.88;100.00
13594;BME280;6449;47.666;9.160;2023-04-06T08:00:15;97299.50;;;5.56;100.00
13594;BME280;6449;47.666;9.160;2023-04-06T08:05:09;97289.63;;;5.62;100.00
13594;BME280;6449;47.666;9.160;2023-04-06T08:10:04;97288.72;;;5.81;100.00
13594;BME280;6449;47.666;9.160;2023-04-06T08:14:58;97283.25;;;6.20;100.00
13594;BME280;6449;47.666;9.160;2023-04-06T08:19:53;97289.44;;;6.35;100.00
13594;BME280;6449;47.666;9.160;2023-04-06T08:40:03;97275.09;;;6.75;95.55
13594;BME280;6449;47.666;9.160;2023-04-06T08:44:57;97260.63;;;7.01;87.55
13594;BME280;6449;47.666;9.160;2023-04-06T08:49:52;97264.03;;;7.33;91.12
13594;BME280;6449;47.666;9.160;2023-04-06T08:59:49;97265.97;;;8.04;89.93
13594;BME280;6449;47.666;9.160;2023-04-06T09:04:45;97251.50;;;8.43;86.56
13594;BME280;6449;47.666;9.160;2023-04-06T09:09:43;97253.50;;;8.23;85.55
13594;BME280;6449;47.666;9.160;2023-04-06T09:14:40;97250.72;;;8.40;84.63
13594;BME280;6449;47.666;9.160;2023-04-06T09:19:47;97256.69;;;8.57;87.45
13594;BME280;6449;47.666;9.160;2023-04-06T09:24:43;97236.53;;;9.00;84.41
13594;BME280;6449;47.666;9.160;2023-04-06T09:40:07;97235.19;;;9.34;80.90
13594;BME280;6449;47.666;9.160;2023-04-06T09:50:11;97223.72;;;9.62;79.48
13594;BME280;6449;47.666;9.160;2023-04-06T09:55:08;97214.31;;;9.85;79.78
13594;BME280;6449;47.666;9.160;2023-04-06T10:00:16;97199.66;;;10.08;77.03
13594;BME280;6449;47.666;9.160;2023-04-06T10:05:27;97198.69;;;10.22;75.28
13594;BME280;6449;47.666;9.160;2023-04-06T10:15:38;97196.63;;;10.27;74.18
13594;BME280;6449;47.666;9.160;2023-04-06T10:20:48;97187.25;;;10.48;72.52
13594;BME280;6449;47.666;9.160;2023-04-06T10:35:57;97185.16;;;10.54;75.23
13594;BME280;6449;47.666;9.160;2023-04-06T10:41:04;97174.97;;;10.49;69.23
13594;BME280;6449;47.666;9.160;2023-04-06T10:46:09;97183.09;;;10.46;75.35
13594;BME280;6449;47.666;9.160;2023-04-06T10:51:09;97176.25;;;10.43;75.47
13594;BME280;6449;47.666;9.160;2023-04-06T11:01:15;97157.81;;;10.82;66.86
13594;BME280;6449;47.666;9.160;2023-04-06T11:06:18;97154.50;;;10.67;64.70
13594;BME280;6449;47.666;9.160;2023-04-06T11:11:15;97159.97;;;10.88;68.61
13594;BME280;6449;47.666;9.160;2023-04-06T11:16:31;97154.56;;;10.78;67.00
13594;BME280;6449;47.666;9.160;2023-04-06T11:26:51;97132.13;;;11.33;57.06
13594;BME280;6449;47.666;9.160;2023-04-06T11:37:16;97110.47;;;11.76;53.82
13594;BME280;6449;47.666;9.160;2023-04-06T12:02:36;97070.59;;;12.16;48.25
13594;BME280;6449;47.666;9.160;2023-04-06T12:07:30;97079.94;;;12.20;54.27
13594;BME280;6449;47.666;9.160;2023-04-06T12:12:24;97067.63;;;12.20;50.97
13594;BME280;6449;47.666;9.160;2023-04-06T12:17:19;97064.97;;;12.31;49.88
13594;BME280;6449;47.666;9.160;2023-04-06T12:22:14;97030.59;;;12.12;42.27
13594;BME280;6449;47.666;9.160;2023-04-06T12:27:08;97034.03;;;12.24;43.57
13594;BME280;6449;47.666;9.160;2023-04-06T12:32:03;97027.84;;;12.46;43.58
13594;BME280;6449;47.666;9.160;2023-04-06T12:36:57;97038.31;;;12.36;45.79
13594;BME280;6449;47.666;9.160;2023-04-06T12:41:53;97038.78;;;12.30;49.08
13594;BME280;6449;47.666;9.160;2023-04-06T12:57:08;97013.59;;;12.59;41.80
13594;BME280;6449;47.666;9.160;2023-04-06T13:02:04;97032.91;;;12.70;45.32
13594;BME280;6449;47.666;9.160;2023-04-06T13:06:58;97009.31;;;12.79;40.86
13594;BME280;6449;47.666;9.160;2023-04-06T13:11:52;96991.72;;;12.59;36.02
13594;BME280;6449;47.666;9.160;2023-04-06T13:16:47;97002.56;;;12.66;38.29
13594;BME280;6449;47.666;9.160;2023-04-06T13:31:56;97002.28;;;12.48;40.26
13594;BME280;6449;47.666;9.160;2023-04-06T13:36:51;97008.38;;;12.48;40.26
13594;BME280;6449;47.666;9.160;2023-04-06T13:41:45;97020.59;;;12.38;45.28
13594;BME280;6449;47.666;9.160;2023-04-06T14:17:22;97009.16;;;12.28;49.51
13594;BME280;6449;47.666;9.160;2023-04-06T14:22:17;97007.88;;;12.22;47.29
13594;BME280;6449;47.666;9.160;2023-04-06T14:27:10;97018.53;;;12.53;50.80
13594;BME280;6449;47.666;9.160;2023-04-06T14:32:04;96993.97;;;12.64;45.39
13594;BME280;6449;47.666;9.160;2023-04-06T14:36:59;96999.16;;;12.54;45.98
13594;BME280;6449;47.666;9.160;2023-04-06T14:41:56;96981.66;;;12.64;43.07
13594;BME280;6449;47.666;9.160;2023-04-06T14:57:29;96995.38;;;12.36;45.85
13594;BME280;6449;47.666;9.160;2023-04-06T15:02:24;97000.22;;;12.51;47.80
13594;BME280;6449;47.666;9.160;2023-04-06T15:07:18;96995.81;;;12.52;46.45
13594;BME280;6449;47.666;9.160;2023-04-06T15:12:16;97010.38;;;12.56;51.13
13594;BME280;6449;47.666;9.160;2023-04-06T15:17:14;97011.38;;;12.44;48.95
13594;BME280;6449;47.666;9.160;2023-04-06T15:22:08;96991.41;;;12.52;48.41
13594;BME280;6449;47.666;9.160;2023-04-06T15:27:03;96998.91;;;12.57;51.48
13594;BME280;6449;47.666;9.160;2023-04-06T15:32:01;96994.94;;;12.83;52.21
13594;BME280;6449;47.666;9.160;2023-04-06T15:36:56;96978.00;;;12.76;45.39
13594;BME280;6449;47.666;9.160;2023-04-06T15:41:56;96981.38;;;12.67;47.05
13594;BME280;6449;47.666;9.160;2023-04-06T15:46:50;96978.97;;;12.75;44.37
13594;BME280;6449;47.666;9.160;2023-04-06T15:57:38;96988.81;;;12.41;50.84
13594;BME280;6449;47.666;9.160;2023-04-06T16:02:31;96985.41;;;12.18;49.84
13594;BME280;6449;47.666;9.160;2023-04-06T16:07:25;96997.50;;;11.98;52.84
13594;BME280;6449;47.666;9.160;2023-04-06T16:12:19;96990.13;;;11.92;49.97
13594;BME280;6449;47.666;9.160;2023-04-06T16:17:14;96998.84;;;11.93;52.22
13594;BME280;6449;47.666;9.160;2023-04-06T16:22:08;96981.41;;;11.92;48.70
13594;BME280;6449;47.666;9.160;2023-04-06T16:27:02;96993.72;;;11.91;49.78
13594;BME280;6449;47.666;9.160;2023-04-06T16:39:16;96995.38;;;11.81;50.29
13594;BME280;6449;47.666;9.160;2023-04-06T16:44:09;97006.63;;;11.72;52.50
13594;BME280;6449;47.666;9.160;2023-04-06T16:49:49;97000.78;;;11.68;47.56
13594;BME280;6449;47.666;9.160;2023-04-06T16:54:44;96987.78;;;11.67;45.91
13594;BME280;6449;47.666;9.160;2023-04-06T16:59:37;96999.47;;;11.51;48.25
13594;BME280;6449;47.666;9.160;2023-04-06T17:11:08;97031.53;;;11.33;54.56
13594;BME280;6449;47.666;9.160;2023-04-06T17:16:06;97020.91;;;11.23;50.71
13594;BME280;6449;47.666;9.160;2023-04-06T17:21:05;97021.84;;;11.11;50.10
13594;BME280;6449;47.666;9.160;2023-04-06T20:34:25;97192.34;;;9.75;76.29
13594;BME280;6449;47.666;9.160;2023-04-06T20:39:20;97193.78;;;9.66;76.58
13594;BME280;6449;47.666;9.160;2023-04-06T20:44:16;97194.94;;;9.62;78.30
13594;BME280;6449;47.666;9.160;2023-04-06T20:49:18;97202.03;;;9.48;82.35
13594;BME280;6449;47.666;9.160;2023-04-06T20:54:40;97197.19;;;9.41;79.06
13594;BME280;6449;47.666;9.160;2023-04-06T21:04:53;97217.41;;;9.39;89.71
13594;BME280;6449;47.666;9.160;2023-04-06T21:09:51;97213.91;;;9.26;91.13
13594;BME280;6449;47.666;9.160;2023-04-06T21:14:44;97204.19;;;9.28;89.67
13594;BME280;6449;47.666;9.160;2023-04-06T21:19:38;97216.94;;;9.20;92.84
13594;BME280;6449;47.666;9.160;2023-04-06T21:24:31;97223.38;;;9.02;97.47
13594;BME280;6449;47.666;9.160;2023-04-06T21:29:26;97211.13;;;9.02;97.69
13594;BME280;6449;47.666;9.160;2023-04-06T21:34:25;97216.66;;;8.98;100.00
13594;BME280;6449;47.666;9.160;2023-04-06T21:39:19;97205.38;;;9.10;100.00
13594;BME280;6449;47.666;9.160;2023-04-06T21:44:12;97212.22;;;8.85;100.00
13594;BME280;6449;47.666;9.160;2023-04-06T21:49:10;97220.78;;;8.87;100.00
13594;BME280;6449;47.666;9.160;2023-04-06T22:00:19;97219.66;;;8.36;100.00
13594;BME280;6449;47.666;9.160;2023-04-06T22:05:14;97210.53;;;8.43;100.00
13594;BME280;6449;47.666;9.160;2023-04-06T22:10:08;97200.50;;;8.35;100.00
13594;BME280;6449;47.666;9.160;2023-04-06T22:15:02;97199.25;;;8.43;100.00
13594;BME280;6449;47.666;9.160;2023-04-06T22:19:55;97202.97;;;8.38;100.00
13594;BME280;6449;47.666;9.160;2023-04-06T22:24:50;97195.88;;;8.40;100.00
13594;BME280;6449;47.666;9.160;2023-04-06T22:29:44;97196.91;;;8.52;100.00
13594;BME280;6449;47.666;9.160;2023-04-06T22:34:37;97185.22;;;8.29;100.00
13594;BME280;6449;47.666;9.160;2023-04-06T22:39:31;97176.00;;;8.24;100.00
13594;BME280;6449;47.666;9.160;2023-04-06T22:44:26;97164.59;;;8.25;100.00
13594;BME280;6449;47.666;9.160;2023-04-06T22:49:19;97156.69;;;8.26;100.00
13594;BME280;6449;47.666;9.160;2023-04-06T22:54:15;97154.63;;;8.31;100.00
13594;BME280;6449;47.666;9.160;2023-04-06T22:59:12;97155.38;;;8.33;100.00
13594;BME280;6449;47.666;9.160;2023-04-06T23:04:07;97143.00;;;8.37;100.00
13594;BME280;6449;47.666;9.160;2023-04-06T23:09:00;97132.16;;;8.43;100.00
13594;BME280;6449;47.666;9.160;2023-04-06T23:13:54;97129.94;;;8.37;100.00
13594;BME280;6449;47.666;9.160;2023-04-06T23:18:51;97129.97;;;8.35;100.00
13594;BME280;6449;47.666;9.160;2023-04-06T23:23:45;97129.97;;;8.35;100.00
13594;BME280;6449;47.666;9.160;2023-04-06T23:28:42;97122.25;;;8.34;100.00
13594;BME280;6449;47.666;9.160;2023-04-06T23:33:35;97121.03;;;8.25;100.00
13594;BME280;6449;47.666;9.160;2023-04-06T23:38:29;97113.19;;;8.25;100.00
13594;BME280;6449;47.666;9.160;2023-04-06T23:43:24;97118.09;;;8.17;100.00
13594;BME280;6449;47.666;9.160;2023-04-06T23:48:17;97107.53;;;8.19;100.00
13594;BME280;6449;47.666;9.160;2023-04-06T23:53:12;97093.34;;;8.23;100.00
13594;BME280;6449;47.666;9.160;2023-04-06T23:58:10;97092.84;;;8.30;100.00
